sensor_id;sensor_type;location;lat;lon;timestamp;P1;durP1;ratioP1;P2;durP2;ratioP2
55989;SDS011;41875;55.806;38.082;2023-02-15T00:00:28;4.60;;;1.27;;
55989;SDS011;41875;55.806;38.082;2023-02-15T00:05:24;6.45;;;1.27;;
55989;SDS011;41875;55.806;38.082;2023-02-15T00:07:53;4.07;;;1.15;;
55989;SDS011;41875;55.806;38.082;2023-02-15T00:10:21;4.03;;;1.42;;
55989;SDS011;41875;55.806;38.082;2023-02-15T00:12:50;4.30;;;1.38;;
55989;SDS011;41875;55.806;38.082;2023-02-15T00:15:19;8.00;;;1.88;;
55989;SDS011;41875;55.806;38.082;2023-02-15T00:17:48;6.82;;;1.95;;
55989;SDS011;41875;55.806;38.082;2023-02-15T00:20:16;5.07;;;1.35;;
55989;SDS011;41875;55.806;38.082;2023-02-15T00:22:46;5.78;;;2.05;;
55989;SDS011;41875;55.806;38.082;2023-02-15T00:25:14;6.72;;;1.55;;
55989;SDS011;41875;55.806;38.082;2023-02-15T00:30:11;6.15;;;1.80;;
55989;SDS011;41875;55.806;38.082;2023-02-15T00:32:41;4.55;;;1.55;;
55989;SDS011;41875;55.806;38.082;2023-02-15T00:35:10;3.38;;;1.60;;
55989;SDS011;41875;55.806;38.082;2023-02-15T00:40:07;4.55;;;1.70;;
55989;SDS011;41875;55.806;38.082;2023-02-15T00:42:38;7.60;;;2.03;;
55989;SDS011;41875;55.806;38.082;2023-02-15T00:45:07;4.32;;;1.50;;
55989;SDS011;41875;55.806;38.082;2023-02-15T00:47:37;5.85;;;1.77;;
55989;SDS011;41875;55.806;38.082;2023-02-15T00:50:07;5.72;;;1.92;;
55989;SDS011;41875;55.806;38.082;2023-02-15T00:52:37;3.53;;;1.13;;
55989;SDS011;41875;55.806;38.082;2023-02-15T00:57:34;5.97;;;1.60;;
55989;SDS011;41875;55.806;38.082;2023-02-15T01:02:31;6.85;;;2.17;;
55989;SDS011;41875;55.806;38.082;2023-02-15T01:05:01;3.78;;;1.10;;
55989;SDS011;41875;55.806;38.082;2023-02-15T01:07:31;3.42;;;1.40;;
55989;SDS011;41875;55.806;38.082;2023-02-15T01:09:59;3.75;;;1.30;;
55989;SDS011;41875;55.806;38.082;2023-02-15T01:12:29;2.28;;;1.27;;
55989;SDS011;41875;55.806;38.082;2023-02-15T01:14:57;6.95;;;1.40;;
55989;SDS011;41875;55.806;38.082;2023-02-15T01:17:25;4.18;;;1.67;;
55989;SDS011;41875;55.806;38.082;2023-02-15T01:19:54;5.40;;;1.58;;
55989;SDS011;41875;55.806;38.082;2023-02-15T01:22:23;4.32;;;1.88;;
55989;SDS011;41875;55.806;38.082;2023-02-15T01:27:21;9.02;;;1.73;;
55989;SDS011;41875;55.806;38.082;2023-02-15T01:32:17;6.13;;;1.70;;
55989;SDS011;41875;55.806;38.082;2023-02-15T01:37:14;3.45;;;1.15;;
55989;SDS011;41875;55.806;38.082;2023-02-15T01:42:14;5.13;;;1.60;;
55989;SDS011;41875;55.806;38.082;2023-02-15T01:44:50;1.98;;;1.33;;
55989;SDS011;41875;55.806;38.082;2023-02-15T01:47:21;8.63;;;1.65;;
55989;SDS011;41875;55.806;38.082;2023-02-15T01:49:57;7.40;;;1.60;;
55989;SDS011;41875;55.806;38.082;2023-02-15T01:52:29;4.47;;;1.30;;
55989;SDS011;41875;55.806;38.082;2023-02-15T01:54:57;6.35;;;1.90;;
55989;SDS011;41875;55.806;38.082;2023-02-15T01:57:30;5.50;;;1.45;;
55989;SDS011;41875;55.806;38.082;2023-02-15T01:59:59;6.40;;;1.90;;
55989;SDS011;41875;55.806;38.082;2023-02-15T02:02:40;8.52;;;1.33;;
55989;SDS011;41875;55.806;38.082;2023-02-15T02:05:11;1.45;;;0.70;;
55989;SDS011;41875;55.806;38.082;2023-02-15T02:07:41;4.78;;;1.58;;
55989;SDS011;41875;55.806;38.082;2023-02-15T02:10:13;6.38;;;1.65;;
55989;SDS011;41875;55.806;38.082;2023-02-15T02:12:45;3.53;;;1.58;;
55989;SDS011;41875;55.806;38.082;2023-02-15T02:15:16;1.70;;;0.80;;
55989;SDS011;41875;55.806;38.082;2023-02-15T02:17:49;4.43;;;1.35;;
55989;SDS011;41875;55.806;38.082;2023-02-15T02:20:43;3.90;;;1.40;;
55989;SDS011;41875;55.806;38.082;2023-02-15T02:23:37;5.32;;;1.73;;
55989;SDS011;41875;55.806;38.082;2023-02-15T02:26:23;3.35;;;1.23;;
55989;SDS011;41875;55.806;38.082;2023-02-15T02:35:30;2.72;;;0.82;;
55989;SDS011;41875;55.806;38.082;2023-02-15T02:38:07;5.53;;;1.45;;
55989;SDS011;41875;55.806;38.082;2023-02-15T02:40:43;10.38;;;2.30;;
55989;SDS011;41875;55.806;38.082;2023-02-15T02:43:21;3.17;;;1.58;;
55989;SDS011;41875;55.806;38.082;2023-02-15T02:45:58;4.45;;;1.88;;
55989;SDS011;41875;55.806;38.082;2023-02-15T02:48:32;3.47;;;1.25;;
55989;SDS011;41875;55.806;38.082;2023-02-15T02:51:02;5.97;;;1.27;;
55989;SDS011;41875;55.806;38.082;2023-02-15T02:53:30;5.35;;;1.67;;
55989;SDS011;41875;55.806;38.082;2023-02-15T02:56:03;5.55;;;1.63;;
55989;SDS011;41875;55.806;38.082;2023-02-15T02:58:36;8.23;;;1.92;;
55989;SDS011;41875;55.806;38.082;2023-02-15T03:01:10;3.80;;;1.25;;
55989;SDS011;41875;55.806;38.082;2023-02-15T03:03:46;8.45;;;2.05;;
55989;SDS011;41875;55.806;38.082;2023-02-15T03:06:18;4.10;;;1.30;;
55989;SDS011;41875;55.806;38.082;2023-02-15T03:08:51;5.03;;;1.38;;
55989;SDS011;41875;55.806;38.082;2023-02-15T03:11:26;6.60;;;1.73;;
55989;SDS011;41875;55.806;38.082;2023-02-15T03:13:55;4.18;;;1.58;;
55989;SDS011;41875;55.806;38.082;2023-02-15T03:16:25;6.85;;;1.88;;
55989;SDS011;41875;55.806;38.082;2023-02-15T03:18:57;6.63;;;1.67;;
55989;SDS011;41875;55.806;38.082;2023-02-15T03:21:31;5.63;;;1.45;;
55989;SDS011;41875;55.806;38.082;2023-02-15T03:24:08;10.88;;;2.15;;
55989;SDS011;41875;55.806;38.082;2023-02-15T03:26:43;4.90;;;1.70;;
55989;SDS011;41875;55.806;38.082;2023-02-15T03:29:15;3.22;;;1.13;;
55989;SDS011;41875;55.806;38.082;2023-02-15T03:31:51;2.83;;;1.45;;
55989;SDS011;41875;55.806;38.082;2023-02-15T03:34:24;3.63;;;1.00;;
55989;SDS011;41875;55.806;38.082;2023-02-15T03:36:55;7.85;;;1.95;;
55989;SDS011;41875;55.806;38.082;2023-02-15T03:39:29;4.20;;;1.80;;
55989;SDS011;41875;55.806;38.082;2023-02-15T03:42:04;10.65;;;2.30;;
55989;SDS011;41875;55.806;38.082;2023-02-15T03:44:40;4.53;;;1.55;;
55989;SDS011;41875;55.806;38.082;2023-02-15T03:47:15;8.63;;;1.85;;
55989;SDS011;41875;55.806;38.082;2023-02-15T03:49:50;4.35;;;1.80;;
55989;SDS011;41875;55.806;38.082;2023-02-15T03:52:23;7.47;;;1.95;;
55989;SDS011;41875;55.806;38.082;2023-02-15T03:54:53;2.53;;;1.30;;
55989;SDS011;41875;55.806;38.082;2023-02-15T03:57:23;4.22;;;1.40;;
55989;SDS011;41875;55.806;38.082;2023-02-15T04:00:12;9.77;;;2.78;;
55989;SDS011;41875;55.806;38.082;2023-02-15T04:03:04;8.73;;;2.10;;
55989;SDS011;41875;55.806;38.082;2023-02-15T04:05:42;7.10;;;1.80;;
55989;SDS011;41875;55.806;38.082;2023-02-15T04:08:11;3.53;;;1.65;;
55989;SDS011;41875;55.806;38.082;2023-02-15T04:10:40;8.00;;;1.80;;
55989;SDS011;41875;55.806;38.082;2023-02-15T04:13:29;5.82;;;1.73;;
55989;SDS011;41875;55.806;38.082;2023-02-15T04:15:58;4.72;;;1.35;;
55989;SDS011;41875;55.806;38.082;2023-02-15T04:21:25;2.78;;;1.38;;
55989;SDS011;41875;55.806;38.082;2023-02-15T04:24:13;9.52;;;1.95;;
55989;SDS011;41875;55.806;38.082;2023-02-15T04:27:00;5.68;;;1.58;;
55989;SDS011;41875;55.806;38.082;2023-02-15T04:29:29;2.72;;;0.93;;
55989;SDS011;41875;55.806;38.082;2023-02-15T04:32:01;4.32;;;1.48;;
55989;SDS011;41875;55.806;38.082;2023-02-15T04:34:29;4.72;;;1.20;;
55989;SDS011;41875;55.806;38.082;2023-02-15T04:36:59;4.60;;;1.55;;
55989;SDS011;41875;55.806;38.082;2023-02-15T04:39:28;4.88;;;1.73;;
55989;SDS011;41875;55.806;38.082;2023-02-15T04:41:56;8.50;;;1.30;;
55989;SDS011;41875;55.806;38.082;2023-02-15T04:44:25;5.93;;;1.48;;
55989;SDS011;41875;55.806;38.082;2023-02-15T04:46:53;6.18;;;1.60;;
55989;SDS011;41875;55.806;38.082;2023-02-15T04:51:50;7.80;;;1.73;;
55989;SDS011;41875;55.806;38.082;2023-02-15T04:56:48;3.13;;;1.20;;
55989;SDS011;41875;55.806;38.082;2023-02-15T05:01:45;3.50;;;1.45;;
55989;SDS011;41875;55.806;38.082;2023-02-15T05:04:14;5.13;;;1.92;;
55989;SDS011;41875;55.806;38.082;2023-02-15T05:06:42;5.68;;;1.88;;
55989;SDS011;41875;55.806;38.082;2023-02-15T05:09:11;4.55;;;1.40;;
55989;SDS011;41875;55.806;38.082;2023-02-15T05:11:41;8.10;;;2.08;;
55989;SDS011;41875;55.806;38.082;2023-02-15T05:14:09;3.60;;;1.58;;
55989;SDS011;41875;55.806;38.082;2023-02-15T05:16:38;3.92;;;1.45;;
55989;SDS011;41875;55.806;38.082;2023-02-15T05:21:34;4.03;;;1.50;;
55989;SDS011;41875;55.806;38.082;2023-02-15T05:24:03;7.35;;;2.08;;
55989;SDS011;41875;55.806;38.082;2023-02-15T05:26:54;37.92;;;4.55;;
55989;SDS011;41875;55.806;38.082;2023-02-15T05:29:39;8.10;;;2.10;;
55989;SDS011;41875;55.806;38.082;2023-02-15T05:34:35;3.33;;;1.73;;
55989;SDS011;41875;55.806;38.082;2023-02-15T05:39:32;6.18;;;1.88;;
55989;SDS011;41875;55.806;38.082;2023-02-15T05:42:02;5.20;;;1.20;;
55989;SDS011;41875;55.806;38.082;2023-02-15T05:44:31;6.82;;;2.22;;
55989;SDS011;41875;55.806;38.082;2023-02-15T05:47:07;3.65;;;1.30;;
55989;SDS011;41875;55.806;38.082;2023-02-15T05:49:57;7.50;;;2.20;;
55989;SDS011;41875;55.806;38.082;2023-02-15T05:55:37;6.57;;;2.40;;
55989;SDS011;41875;55.806;38.082;2023-02-15T05:58:07;4.53;;;1.40;;
55989;SDS011;41875;55.806;38.082;2023-02-15T06:00:35;5.43;;;2.25;;
55989;SDS011;41875;55.806;38.082;2023-02-15T06:03:04;6.10;;;2.25;;
55989;SDS011;41875;55.806;38.082;2023-02-15T06:05:32;6.88;;;2.20;;
55989;SDS011;41875;55.806;38.082;2023-02-15T06:10:31;7.07;;;2.50;;
55989;SDS011;41875;55.806;38.082;2023-02-15T06:13:00;5.45;;;1.80;;
55989;SDS011;41875;55.806;38.082;2023-02-15T06:17:58;7.95;;;2.55;;
55989;SDS011;41875;55.806;38.082;2023-02-15T06:20:26;6.25;;;1.52;;
55989;SDS011;41875;55.806;38.082;2023-02-15T06:22:55;5.05;;;1.88;;
55989;SDS011;41875;55.806;38.082;2023-02-15T06:27:52;7.95;;;2.30;;
55989;SDS011;41875;55.806;38.082;2023-02-15T06:30:20;13.38;;;3.25;;
55989;SDS011;41875;55.806;38.082;2023-02-15T06:35:18;11.52;;;3.15;;
55989;SDS011;41875;55.806;38.082;2023-02-15T06:37:48;13.85;;;2.13;;
55989;SDS011;41875;55.806;38.082;2023-02-15T06:40:17;7.93;;;2.00;;
55989;SDS011;41875;55.806;38.082;2023-02-15T06:42:45;6.60;;;2.25;;
55989;SDS011;41875;55.806;38.082;2023-02-15T06:47:42;2.35;;;1.08;;
55989;SDS011;41875;55.806;38.082;2023-02-15T06:52:40;6.88;;;2.47;;
55989;SDS011;41875;55.806;38.082;2023-02-15T06:57:36;8.35;;;3.10;;
55989;SDS011;41875;55.806;38.082;2023-02-15T07:02:34;6.78;;;2.50;;
55989;SDS011;41875;55.806;38.082;2023-02-15T07:05:03;6.40;;;2.53;;
55989;SDS011;41875;55.806;38.082;2023-02-15T07:07:33;6.82;;;2.70;;
55989;SDS011;41875;55.806;38.082;2023-02-15T07:10:02;7.05;;;2.80;;
55989;SDS011;41875;55.806;38.082;2023-02-15T07:12:30;7.10;;;3.05;;
55989;SDS011;41875;55.806;38.082;2023-02-15T07:15:11;13.77;;;3.78;;
55989;SDS011;41875;55.806;38.082;2023-02-15T07:17:41;10.13;;;3.63;;
55989;SDS011;41875;55.806;38.082;2023-02-15T07:20:14;5.93;;;2.05;;
55989;SDS011;41875;55.806;38.082;2023-02-15T07:22:45;26.58;;;4.05;;
55989;SDS011;41875;55.806;38.082;2023-02-15T07:25:13;6.22;;;2.33;;
55989;SDS011;41875;55.806;38.082;2023-02-15T07:27:42;4.78;;;1.65;;
55989;SDS011;41875;55.806;38.082;2023-02-15T07:30:12;7.85;;;2.97;;
55989;SDS011;41875;55.806;38.082;2023-02-15T07:32:43;12.82;;;4.07;;
55989;SDS011;41875;55.806;38.082;2023-02-15T07:35:31;12.60;;;4.00;;
55989;SDS011;41875;55.806;38.082;2023-02-15T07:38:01;9.05;;;2.80;;
55989;SDS011;41875;55.806;38.082;2023-02-15T07:40:30;7.75;;;2.72;;
55989;SDS011;41875;55.806;38.082;2023-02-15T07:42:58;9.73;;;3.25;;
55989;SDS011;41875;55.806;38.082;2023-02-15T07:47:55;3.58;;;1.65;;
55989;SDS011;41875;55.806;38.082;2023-02-15T07:52:52;2.58;;;1.45;;
55989;SDS011;41875;55.806;38.082;2023-02-15T07:55:22;6.15;;;2.63;;
55989;SDS011;41875;55.806;38.082;2023-02-15T07:57:51;6.78;;;2.83;;
55989;SDS011;41875;55.806;38.082;2023-02-15T08:00:24;5.07;;;2.42;;
55989;SDS011;41875;55.806;38.082;2023-02-15T08:02:53;9.00;;;2.70;;
55989;SDS011;41875;55.806;38.082;2023-02-15T08:05:42;6.10;;;2.53;;
55989;SDS011;41875;55.806;38.082;2023-02-15T08:08:12;6.28;;;2.50;;
55989;SDS011;41875;55.806;38.082;2023-02-15T08:11:02;9.52;;;2.50;;
55989;SDS011;41875;55.806;38.082;2023-02-15T08:13:52;6.93;;;2.42;;
55989;SDS011;41875;55.806;38.082;2023-02-15T08:16:22;7.68;;;2.78;;
55989;SDS011;41875;55.806;38.082;2023-02-15T08:18:51;6.13;;;2.17;;
55989;SDS011;41875;55.806;38.082;2023-02-15T08:21:20;7.88;;;1.80;;
55989;SDS011;41875;55.806;38.082;2023-02-15T08:23:50;8.15;;;2.53;;
55989;SDS011;41875;55.806;38.082;2023-02-15T08:28:48;5.60;;;2.28;;
55989;SDS011;41875;55.806;38.082;2023-02-15T08:31:18;7.93;;;2.47;;
55989;SDS011;41875;55.806;38.082;2023-02-15T08:33:48;8.10;;;2.00;;
55989;SDS011;41875;55.806;38.082;2023-02-15T08:36:19;5.90;;;2.25;;
55989;SDS011;41875;55.806;38.082;2023-02-15T08:38:48;6.07;;;2.08;;
55989;SDS011;41875;55.806;38.082;2023-02-15T08:41:17;3.80;;;1.45;;
55989;SDS011;41875;55.806;38.082;2023-02-15T08:43:49;5.95;;;2.53;;
55989;SDS011;41875;55.806;38.082;2023-02-15T08:46:20;5.07;;;1.42;;
55989;SDS011;41875;55.806;38.082;2023-02-15T08:48:50;6.55;;;2.63;;
55989;SDS011;41875;55.806;38.082;2023-02-15T08:51:20;2.85;;;1.48;;
55989;SDS011;41875;55.806;38.082;2023-02-15T08:53:50;7.82;;;2.00;;
55989;SDS011;41875;55.806;38.082;2023-02-15T08:56:20;7.25;;;1.90;;
55989;SDS011;41875;55.806;38.082;2023-02-15T08:58:52;2.25;;;1.27;;
55989;SDS011;41875;55.806;38.082;2023-02-15T09:01:21;7.78;;;1.98;;
55989;SDS011;41875;55.806;38.082;2023-02-15T09:03:51;2.80;;;1.30;;
55989;SDS011;41875;55.806;38.082;2023-02-15T09:06:23;6.20;;;1.60;;
55989;SDS011;41875;55.806;38.082;2023-02-15T09:08:53;4.00;;;1.75;;
55989;SDS011;41875;55.806;38.082;2023-02-15T09:11:22;4.32;;;1.83;;
55989;SDS011;41875;55.806;38.082;2023-02-15T09:13:54;3.90;;;1.70;;
55989;SDS011;41875;55.806;38.082;2023-02-15T09:16:25;6.05;;;1.90;;
55989;SDS011;41875;55.806;38.082;2023-02-15T09:18:56;2.25;;;1.15;;
55989;SDS011;41875;55.806;38.082;2023-02-15T09:21:26;10.95;;;2.72;;
55989;SDS011;41875;55.806;38.082;2023-02-15T09:23:56;3.53;;;1.45;;
55989;SDS011;41875;55.806;38.082;2023-02-15T09:26:26;7.30;;;3.05;;
55989;SDS011;41875;55.806;38.082;2023-02-15T09:28:58;5.90;;;1.92;;
55989;SDS011;41875;55.806;38.082;2023-02-15T09:31:28;4.00;;;1.77;;
55989;SDS011;41875;55.806;38.082;2023-02-15T09:33:59;3.08;;;1.48;;
55989;SDS011;41875;55.806;38.082;2023-02-15T09:36:30;2.28;;;1.20;;
55989;SDS011;41875;55.806;38.082;2023-02-15T09:39:00;5.95;;;1.70;;
55989;SDS011;41875;55.806;38.082;2023-02-15T09:41:50;5.30;;;1.90;;
55989;SDS011;41875;55.806;38.082;2023-02-15T09:44:36;5.82;;;1.70;;
55989;SDS011;41875;55.806;38.082;2023-02-15T09:47:23;4.45;;;1.58;;
55989;SDS011;41875;55.806;38.082;2023-02-15T09:50:09;2.83;;;1.55;;
55989;SDS011;41875;55.806;38.082;2023-02-15T09:52:54;3.35;;;1.17;;
55989;SDS011;41875;55.806;38.082;2023-02-15T09:55:41;3.95;;;1.50;;
55989;SDS011;41875;55.806;38.082;2023-02-15T09:58:18;3.08;;;1.40;;
55989;SDS011;41875;55.806;38.082;2023-02-15T10:01:00;2.70;;;1.30;;
55989;SDS011;41875;55.806;38.082;2023-02-15T10:03:39;3.97;;;1.33;;
55989;SDS011;41875;55.806;38.082;2023-02-15T10:06:24;3.35;;;1.40;;
55989;SDS011;41875;55.806;38.082;2023-02-15T10:09:02;3.83;;;1.27;;
55989;SDS011;41875;55.806;38.082;2023-02-15T10:11:39;3.83;;;1.77;;
55989;SDS011;41875;55.806;38.082;2023-02-15T10:14:31;2.83;;;1.50;;
55989;SDS011;41875;55.806;38.082;2023-02-15T10:17:26;5.05;;;1.85;;
55989;SDS011;41875;55.806;38.082;2023-02-15T10:20:11;6.65;;;2.30;;
55989;SDS011;41875;55.806;38.082;2023-02-15T10:22:54;3.38;;;1.17;;
55989;SDS011;41875;55.806;38.082;2023-02-15T10:25:39;2.00;;;0.93;;
55989;SDS011;41875;55.806;38.082;2023-02-15T10:28:15;2.50;;;1.38;;
55989;SDS011;41875;55.806;38.082;2023-02-15T10:30:46;2.60;;;1.20;;
55989;SDS011;41875;55.806;38.082;2023-02-15T10:33:24;1.90;;;1.25;;
55989;SDS011;41875;55.806;38.082;2023-02-15T10:36:05;3.80;;;1.70;;
55989;SDS011;41875;55.806;38.082;2023-02-15T10:38:45;3.30;;;1.10;;
55989;SDS011;41875;55.806;38.082;2023-02-15T10:41:20;3.55;;;1.02;;
55989;SDS011;41875;55.806;38.082;2023-02-15T10:44:06;3.50;;;1.70;;
55989;SDS011;41875;55.806;38.082;2023-02-15T10:46:54;3.50;;;1.50;;
55989;SDS011;41875;55.806;38.082;2023-02-15T10:49:37;2.17;;;1.02;;
55989;SDS011;41875;55.806;38.082;2023-02-15T10:52:21;6.63;;;1.75;;
55989;SDS011;41875;55.806;38.082;2023-02-15T10:55:00;3.42;;;0.95;;
55989;SDS011;41875;55.806;38.082;2023-02-15T10:57:40;3.25;;;1.40;;
55989;SDS011;41875;55.806;38.082;2023-02-15T11:00:20;6.95;;;2.42;;
55989;SDS011;41875;55.806;38.082;2023-02-15T11:03:00;3.10;;;1.67;;
55989;SDS011;41875;55.806;38.082;2023-02-15T11:05:42;5.50;;;1.38;;
55989;SDS011;41875;55.806;38.082;2023-02-15T11:08:19;3.45;;;1.00;;
55989;SDS011;41875;55.806;38.082;2023-02-15T11:10:52;1.40;;;0.95;;
55989;SDS011;41875;55.806;38.082;2023-02-15T11:13:26;1.65;;;0.80;;
55989;SDS011;41875;55.806;38.082;2023-02-15T11:16:01;5.03;;;1.20;;
55989;SDS011;41875;55.806;38.082;2023-02-15T11:18:34;3.95;;;1.10;;
55989;SDS011;41875;55.806;38.082;2023-02-15T11:21:09;1.55;;;0.90;;
55989;SDS011;41875;55.806;38.082;2023-02-15T11:23:46;1.38;;;1.00;;
55989;SDS011;41875;55.806;38.082;2023-02-15T11:26:17;2.60;;;1.10;;
55989;SDS011;41875;55.806;38.082;2023-02-15T11:28:51;3.10;;;1.00;;
55989;SDS011;41875;55.806;38.082;2023-02-15T11:31:24;2.75;;;1.27;;
55989;SDS011;41875;55.806;38.082;2023-02-15T11:33:56;0.88;;;0.70;;
55989;SDS011;41875;55.806;38.082;2023-02-15T11:36:31;1.52;;;0.90;;
55989;SDS011;41875;55.806;38.082;2023-02-15T11:39:04;1.98;;;1.00;;
55989;SDS011;41875;55.806;38.082;2023-02-15T11:41:38;1.45;;;0.85;;
55989;SDS011;41875;55.806;38.082;2023-02-15T11:44:11;2.17;;;1.02;;
55989;SDS011;41875;55.806;38.082;2023-02-15T11:46:45;2.85;;;1.23;;
55989;SDS011;41875;55.806;38.082;2023-02-15T11:49:20;2.17;;;1.13;;
55989;SDS011;41875;55.806;38.082;2023-02-15T11:51:52;1.85;;;1.10;;
55989;SDS011;41875;55.806;38.082;2023-02-15T11:54:23;2.03;;;0.70;;
55989;SDS011;41875;55.806;38.082;2023-02-15T11:56:56;1.38;;;0.90;;
55989;SDS011;41875;55.806;38.082;2023-02-15T11:59:31;1.80;;;0.95;;
55989;SDS011;41875;55.806;38.082;2023-02-15T12:02:09;1.85;;;1.10;;
55989;SDS011;41875;55.806;38.082;2023-02-15T12:04:46;2.45;;;0.90;;
55989;SDS011;41875;55.806;38.082;2023-02-15T12:07:23;3.58;;;0.98;;
55989;SDS011;41875;55.806;38.082;2023-02-15T12:09:56;2.40;;;1.17;;
55989;SDS011;41875;55.806;38.082;2023-02-15T12:12:31;1.23;;;0.95;;
55989;SDS011;41875;55.806;38.082;2023-02-15T12:15:02;1.38;;;0.95;;
55989;SDS011;41875;55.806;38.082;2023-02-15T12:17:34;0.90;;;0.77;;
55989;SDS011;41875;55.806;38.082;2023-02-15T12:20:19;1.65;;;0.93;;
55989;SDS011;41875;55.806;38.082;2023-02-15T12:22:54;1.15;;;0.77;;
55989;SDS011;41875;55.806;38.082;2023-02-15T12:25:32;1.27;;;1.02;;
55989;SDS011;41875;55.806;38.082;2023-02-15T12:28:05;1.95;;;0.95;;
55989;SDS011;41875;55.806;38.082;2023-02-15T12:30:49;1.85;;;1.10;;
55989;SDS011;41875;55.806;38.082;2023-02-15T12:33:23;0.68;;;0.68;;
55989;SDS011;41875;55.806;38.082;2023-02-15T12:35:56;1.90;;;1.23;;
55989;SDS011;41875;55.806;38.082;2023-02-15T12:38:29;2.25;;;1.10;;
55989;SDS011;41875;55.806;38.082;2023-02-15T12:40:58;2.53;;;1.10;;
55989;SDS011;41875;55.806;38.082;2023-02-15T12:43:31;2.38;;;1.20;;
55989;SDS011;41875;55.806;38.082;2023-02-15T12:46:13;2.40;;;1.08;;
55989;SDS011;41875;55.806;38.082;2023-02-15T12:48:53;3.25;;;1.48;;
55989;SDS011;41875;55.806;38.082;2023-02-15T12:51:44;3.17;;;1.27;;
55989;SDS011;41875;55.806;38.082;2023-02-15T12:54:17;1.52;;;0.82;;
55989;SDS011;41875;55.806;38.082;2023-02-15T12:56:54;2.00;;;1.20;;
55989;SDS011;41875;55.806;38.082;2023-02-15T12:59:25;1.02;;;0.88;;
55989;SDS011;41875;55.806;38.082;2023-02-15T13:01:54;6.43;;;1.38;;
55989;SDS011;41875;55.806;38.082;2023-02-15T13:04:24;2.58;;;1.30;;
55989;SDS011;41875;55.806;38.082;2023-02-15T13:06:54;2.88;;;1.27;;
55989;SDS011;41875;55.806;38.082;2023-02-15T13:09:34;0.70;;;0.70;;
55989;SDS011;41875;55.806;38.082;2023-02-15T13:12:10;0.77;;;0.73;;
55989;SDS011;41875;55.806;38.082;2023-02-15T13:14:44;2.15;;;1.20;;
55989;SDS011;41875;55.806;38.082;2023-02-15T13:17:17;1.88;;;1.00;;
55989;SDS011;41875;55.806;38.082;2023-02-15T13:19:52;2.75;;;1.27;;
55989;SDS011;41875;55.806;38.082;2023-02-15T13:22:25;1.30;;;0.98;;
55989;SDS011;41875;55.806;38.082;2023-02-15T13:25:03;4.10;;;1.43;;
55989;SDS011;41875;55.806;38.082;2023-02-15T13:27:38;1.67;;;1.08;;
55989;SDS011;41875;55.806;38.082;2023-02-15T13:30:16;1.45;;;0.90;;
55989;SDS011;41875;55.806;38.082;2023-02-15T13:32:52;1.13;;;1.00;;
55989;SDS011;41875;55.806;38.082;2023-02-15T13:35:25;1.92;;;0.90;;
55989;SDS011;41875;55.806;38.082;2023-02-15T13:38:14;2.88;;;1.20;;
55989;SDS011;41875;55.806;38.082;2023-02-15T13:41:04;0.75;;;0.70;;
55989;SDS011;41875;55.806;38.082;2023-02-15T13:43:40;1.20;;;1.02;;
55989;SDS011;41875;55.806;38.082;2023-02-15T13:46:23;4.60;;;1.00;;
55989;SDS011;41875;55.806;38.082;2023-02-15T13:49:09;2.05;;;1.00;;
55989;SDS011;41875;55.806;38.082;2023-02-15T13:51:48;4.63;;;1.17;;
55989;SDS011;41875;55.806;38.082;2023-02-15T13:54:29;2.20;;;1.40;;
55989;SDS011;41875;55.806;38.082;2023-02-15T13:57:19;1.73;;;1.10;;
55989;SDS011;41875;55.806;38.082;2023-02-15T13:59:59;1.15;;;0.82;;
55989;SDS011;41875;55.806;38.082;2023-02-15T14:02:53;1.40;;;1.05;;
55989;SDS011;41875;55.806;38.082;2023-02-15T14:08:39;2.08;;;1.20;;
55989;SDS011;41875;55.806;38.082;2023-02-15T14:11:21;1.20;;;0.88;;
55989;SDS011;41875;55.806;38.082;2023-02-15T14:14:23;5.47;;;2.17;;
55989;SDS011;41875;55.806;38.082;2023-02-15T14:17:09;2.33;;;1.17;;
55989;SDS011;41875;55.806;38.082;2023-02-15T14:19:46;4.00;;;1.73;;
55989;SDS011;41875;55.806;38.082;2023-02-15T14:22:22;3.15;;;2.05;;
55989;SDS011;41875;55.806;38.082;2023-02-15T14:24:59;1.60;;;1.05;;
55989;SDS011;41875;55.806;38.082;2023-02-15T14:27:42;1.92;;;1.10;;
55989;SDS011;41875;55.806;38.082;2023-02-15T14:30:22;2.22;;;1.08;;
55989;SDS011;41875;55.806;38.082;2023-02-15T14:32:54;2.38;;;1.05;;
55989;SDS011;41875;55.806;38.082;2023-02-15T14:35:28;1.05;;;0.88;;
55989;SDS011;41875;55.806;38.082;2023-02-15T14:37:58;2.25;;;1.02;;
55989;SDS011;41875;55.806;38.082;2023-02-15T14:40:39;4.85;;;1.27;;
55989;SDS011;41875;55.806;38.082;2023-02-15T14:43:33;3.33;;;1.52;;
55989;SDS011;41875;55.806;38.082;2023-02-15T14:46:18;2.92;;;1.52;;
55989;SDS011;41875;55.806;38.082;2023-02-15T14:48:53;2.42;;;1.33;;
55989;SDS011;41875;55.806;38.082;2023-02-15T14:57:26;4.32;;;1.95;;
55989;SDS011;41875;55.806;38.082;2023-02-15T15:03:02;1.00;;;0.82;;
55989;SDS011;41875;55.806;38.082;2023-02-15T15:05:46;1.50;;;0.80;;
55989;SDS011;41875;55.806;38.082;2023-02-15T15:08:21;0.73;;;0.73;;
55989;SDS011;41875;55.806;38.082;2023-02-15T15:10:54;0.60;;;0.60;;
55989;SDS011;41875;55.806;38.082;2023-02-15T15:13:52;2.08;;;0.98;;
55989;SDS011;41875;55.806;38.082;2023-02-15T15:22:30;0.80;;;0.80;;
55989;SDS011;41875;55.806;38.082;2023-02-15T15:25:04;1.08;;;0.60;;
55989;SDS011;41875;55.806;38.082;2023-02-15T15:27:41;3.72;;;0.90;;
55989;SDS011;41875;55.806;38.082;2023-02-15T15:36:39;1.27;;;0.95;;
55989;SDS011;41875;55.806;38.082;2023-02-15T15:46:13;2.55;;;0.80;;
55989;SDS011;41875;55.806;38.082;2023-02-15T15:49:00;2.67;;;1.10;;
55989;SDS011;41875;55.806;38.082;2023-02-15T15:51:31;1.75;;;1.00;;
55989;SDS011;41875;55.806;38.082;2023-02-15T15:54:04;2.78;;;1.10;;
55989;SDS011;41875;55.806;38.082;2023-02-15T15:56:33;1.48;;;1.00;;
55989;SDS011;41875;55.806;38.082;2023-02-15T15:59:04;2.75;;;1.60;;
55989;SDS011;41875;55.806;38.082;2023-02-15T16:01:37;3.38;;;1.42;;
55989;SDS011;41875;55.806;38.082;2023-02-15T16:04:10;3.20;;;1.52;;
55989;SDS011;41875;55.806;38.082;2023-02-15T16:06:41;3.17;;;1.50;;
55989;SDS011;41875;55.806;38.082;2023-02-15T16:09:16;3.45;;;0.85;;
55989;SDS011;41875;55.806;38.082;2023-02-15T16:11:46;2.53;;;1.00;;
55989;SDS011;41875;55.806;38.082;2023-02-15T16:14:18;3.17;;;1.10;;
55989;SDS011;41875;55.806;38.082;2023-02-15T16:16:54;2.63;;;0.90;;
55989;SDS011;41875;55.806;38.082;2023-02-15T16:19:27;0.85;;;0.80;;
55989;SDS011;41875;55.806;38.082;2023-02-15T16:21:58;2.20;;;1.00;;
55989;SDS011;41875;55.806;38.082;2023-02-15T16:24:47;2.17;;;0.80;;
55989;SDS011;41875;55.806;38.082;2023-02-15T16:27:36;2.03;;;1.35;;
55989;SDS011;41875;55.806;38.082;2023-02-15T16:30:23;2.38;;;1.45;;
55989;SDS011;41875;55.806;38.082;2023-02-15T16:32:54;3.03;;;1.30;;
55989;SDS011;41875;55.806;38.082;2023-02-15T16:35:31;2.15;;;1.48;;
55989;SDS011;41875;55.806;38.082;2023-02-15T16:38:00;4.25;;;1.23;;
55989;SDS011;41875;55.806;38.082;2023-02-15T16:40:35;1.23;;;1.13;;
55989;SDS011;41875;55.806;38.082;2023-02-15T16:43:24;4.05;;;1.85;;
55989;SDS011;41875;55.806;38.082;2023-02-15T16:45:57;2.25;;;0.93;;
55989;SDS011;41875;55.806;38.082;2023-02-15T16:48:32;4.00;;;1.58;;
55989;SDS011;41875;55.806;38.082;2023-02-15T16:51:07;4.68;;;1.83;;
55989;SDS011;41875;55.806;38.082;2023-02-15T16:53:36;3.15;;;1.40;;
55989;SDS011;41875;55.806;38.082;2023-02-15T16:56:07;3.20;;;1.50;;
55989;SDS011;41875;55.806;38.082;2023-02-15T16:58:36;2.85;;;1.23;;
55989;SDS011;41875;55.806;38.082;2023-02-15T17:01:15;2.03;;;1.00;;
55989;SDS011;41875;55.806;38.082;2023-02-15T17:03:48;3.65;;;1.60;;